Time;durP1;ratioP1;P1;durP2;ratioP2;P2;SDS_P1;SDS_P2;PMS_P1;PMS_P2;Temp;Humidity;BMP_temperature;BMP_pressure;BME280_temperature;BME280_humidity;BME280_pressure;Samples;Min_cycle;Max_cycle;Signal;HPM_P1;HPM_P2
2023/06/19 00:00:56;;;;;;;4.70;2.60;;;;;;;15.45;40.01;100014.88;5073084;28;20469;-59
2023/06/19 00:03:22;;;;;;;4.65;2.33;;;;;;;15.56;40.11;100038.94;5092007;28;20051;-56
2023/06/19 00:05:47;;;;;;;4.07;2.40;;;;;;;15.54;39.87;100026.59;5094330;28;20060;-59
2023/06/19 00:08:13;;;;;;;4.00;2.33;;;;;;;15.54;39.87;100035.56;5094373;28;20097;-58
2023/06/19 00:10:38;;;;;;;3.95;2.28;;;;;;;15.44;39.88;100029.38;5093017;28;20415;-57
2023/06/19 00:13:03;;;;;;;3.83;2.10;;;;;;;15.50;40.15;100036.84;5091075;28;20416;-58
2023/06/19 00:15:29;;;;;;;4.55;2.33;;;;;;;15.10;40.00;99982.28;5093181;28;20081;-60
2023/06/19 00:17:59;;;;;;;5.18;2.28;;;;;;;15.42;39.58;99997.13;5094500;28;20336;-59
2023/06/19 00:20:25;;;;;;;4.57;2.58;;;;;;;15.41;39.58;100016.16;5094487;28;20111;-58
2023/06/19 00:22:51;;;;;;;5.13;2.42;;;;;;;15.49;40.07;100032.47;5080242;28;20131;-59
2023/06/19 00:25:19;;;;;;;3.78;2.28;;;;;;;15.64;39.83;100044.41;5073959;28;20063;-58
2023/06/19 00:27:45;;;;;;;9.10;2.65;;;;;;;15.47;40.33;100037.16;5074016;28;20366;-59
2023/06/19 00:30:11;;;;;;;5.20;2.97;;;;;;;15.38;41.09;100043.44;5073552;28;20131;-59
2023/06/19 00:32:46;;;;;;;5.65;2.85;;;;;;;15.26;41.69;100043.66;5070640;28;20398;-57
2023/06/19 00:35:14;;;;;;;5.50;3.17;;;;;;;15.26;41.88;100046.34;5081711;28;20117;-55
2023/06/19 00:37:39;;;;;;;4.65;2.70;;;;;;;15.16;41.97;100040.13;5072763;28;20139;-61
2023/06/19 00:40:10;;;;;;;4.32;3.03;;;;;;;15.28;41.19;100036.25;5072626;28;20483;-58
2023/06/19 00:42:36;;;;;;;5.75;2.70;;;;;;;15.07;42.23;100007.69;5073550;28;20024;-60
2023/06/19 00:45:01;;;;;;;8.50;2.95;;;;;;;15.06;42.54;100038.34;5073680;28;20461;-56
2023/06/19 00:47:28;;;;;;;3.30;2.70;;;;;;;15.13;42.29;100041.28;5056156;28;20025;-58
2023/06/19 00:49:53;;;;;;;6.28;3.13;;;;;;;15.04;42.67;100042.16;5074216;28;20024;-58
2023/06/19 00:52:19;;;;;;;6.07;2.55;;;;;;;14.74;42.67;100007.25;5073622;28;20094;-60
2023/06/19 00:54:44;;;;;;;6.97;2.95;;;;;;;14.86;42.90;100042.97;5073650;28;20082;-59
2023/06/19 00:57:10;;;;;;;6.30;3.10;;;;;;;14.88;42.74;100040.09;5072627;28;20438;-60
2023/06/19 00:59:36;;;;;;;6.38;3.15;;;;;;;14.96;42.28;100036.66;5073668;28;20032;-60
2023/06/19 01:02:01;;;;;;;7.50;2.90;;;;;;;15.03;42.07;100048.56;5079188;28;20032;-59
2023/06/19 01:04:27;;;;;;;7.55;3.20;;;;;;;14.95;42.24;100048.44;5092893;28;20028;-60
2023/06/19 01:07:31;;;;;;;6.03;3.25;;;;;;;15.01;42.05;100053.25;5093521;28;20074;-58
2023/06/19 01:10:05;;;;;;;6.03;3.17;;;;;;;14.86;43.11;100036.69;5090393;28;20028;-58
2023/06/19 01:12:35;;;;;;;4.40;2.92;;;;;;;14.96;42.86;100052.84;5093467;28;20086;-60
2023/06/19 01:15:04;;;;;;;4.75;3.33;;;;;;;14.83;43.48;100042.38;5093631;28;20493;-59
2023/06/19 01:17:34;;;;;;;5.43;2.88;;;;;;;14.81;43.48;100052.47;5092922;28;20335;-59
2023/06/19 01:20:06;;;;;;;7.40;3.35;;;;;;;14.70;43.85;100054.28;5092038;28;20052;-59
2023/06/19 01:22:31;;;;;;;8.23;2.78;;;;;;;14.73;43.43;100047.81;5080602;28;20051;-56
2023/06/19 01:25:00;;;;;;;8.65;3.00;;;;;;;14.76;43.32;100052.91;5072929;28;20028;-59
2023/06/19 01:27:29;;;;;;;4.18;2.65;;;;;;;14.83;43.52;100053.16;5072471;28;20039;-58
2023/06/19 01:29:56;;;;;;;7.18;3.58;;;;;;;14.98;43.01;100051.72;5072666;28;20031;-57
2023/06/19 01:32:45;;;;;;;10.80;3.20;;;;;;;14.87;43.16;100047.34;5072904;28;20077;-60
2023/06/19 01:35:12;;;;;;;9.88;2.72;;;;;;;14.64;43.02;100025.22;5052841;28;20055;-58
2023/06/19 01:37:39;;;;;;;5.13;3.05;;;;;;;14.68;43.66;100058.97;5073727;28;20466;-59
2023/06/19 01:40:09;;;;;;;5.63;2.78;;;;;;;14.63;43.81;100055.88;5072532;28;20412;-57
2023/06/19 01:42:37;;;;;;;8.57;3.05;;;;;;;14.59;44.03;100057.16;5071531;28;20032;-54
2023/06/19 01:45:03;;;;;;;7.35;3.10;;;;;;;14.71;43.44;100056.06;5072625;28;20063;-58
2023/06/19 01:47:32;;;;;;;4.07;3.28;;;;;;;14.78;43.42;100061.69;5072178;28;20036;-59
2023/06/19 01:49:57;;;;;;;6.25;3.15;;;;;;;14.86;43.27;100058.25;5072266;28;20451;-57
2023/06/19 01:52:24;;;;;;;4.72;2.97;;;;;;;14.79;43.59;100058.00;5072845;28;20067;-58
2023/06/19 01:54:50;;;;;;;6.85;3.40;;;;;;;14.75;43.55;100060.16;5072592;28;20032;-58
2023/06/19 01:57:16;;;;;;;5.70;2.58;;;;;;;14.74;43.43;100058.44;5072206;28;20450;-59
2023/06/19 01:59:42;;;;;;;9.40;3.03;;;;;;;14.87;43.16;100059.97;5073872;28;20107;-56
2023/06/19 02:02:07;;;;;;;3.80;2.97;;;;;;;14.65;43.43;100013.47;5085211;28;20040;-55
2023/06/19 02:04:33;;;;;;;7.63;2.83;;;;;;;14.65;43.39;100016.16;5091438;28;20028;-61
2023/06/19 02:06:59;;;;;;;7.32;2.92;;;;;;;15.01;43.09;100051.41;5092635;28;20035;-60
2023/06/19 02:09:24;;;;;;;7.13;2.95;;;;;;;14.94;43.20;100052.97;5090751;28;20028;-58
2023/06/19 02:11:50;;;;;;;7.80;3.13;;;;;;;14.92;43.56;100047.75;5090537;28;20378;-59
2023/06/19 02:14:15;;;;;;;6.78;2.90;;;;;;;14.77;43.66;100028.50;5093004;28;20028;-60
2023/06/19 02:16:43;;;;;;;6.78;3.22;;;;;;;15.09;43.31;100049.81;5091216;28;20340;-58
2023/06/19 02:19:12;;;;;;;8.70;3.17;;;;;;;15.44;42.18;100059.06;5092402;28;20050;-57
2023/06/19 02:21:39;;;;;;;6.57;3.15;;;;;;;15.46;42.39;100048.97;5090758;28;20056;-58
2023/06/19 02:24:05;;;;;;;8.63;3.20;;;;;;;15.68;41.35;100050.38;5092406;28;20179;-56
2023/06/19 02:26:31;;;;;;;6.97;2.80;;;;;;;15.88;41.08;100061.91;5092096;28;20170;-61
2023/06/19 02:28:57;;;;;;;8.45;3.03;;;;;;;16.02;40.89;100048.91;5092377;28;20494;-57
2023/06/19 02:31:23;;;;;;;6.65;2.95;;;;;;;16.32;40.18;100038.69;5092747;28;20120;-59
2023/06/19 02:33:49;;;;;;;8.02;3.05;;;;;;;16.44;39.83;100031.19;5087317;28;20037;-57
2023/06/19 02:36:19;;;;;;;8.02;3.22;;;;;;;16.78;39.15;100033.97;5071208;28;20029;-61
2023/06/19 02:38:49;;;;;;;5.40;2.90;;;;;;;17.18;38.67;100049.78;5074096;28;20047;-61
2023/06/19 02:41:15;;;;;;;8.68;3.45;;;;;;;17.38;37.96;100039.53;5078478;28;20041;-58
2023/06/19 02:43:42;;;;;;;7.78;2.95;;;;;;;17.69;37.34;100044.38;5074643;28;20558;-59
2023/06/19 02:46:08;;;;;;;7.50;3.20;;;;;;;17.85;36.97;100048.13;5075780;28;20029;-60
2023/06/19 02:48:34;;;;;;;8.43;3.00;;;;;;;17.90;36.85;100035.81;5075102;28;20079;-56
2023/06/19 02:51:00;;;;;;;7.35;3.67;;;;;;;17.95;36.81;100038.00;5076085;28;20028;-58
2023/06/19 02:53:25;;;;;;;7.50;3.10;;;;;;;17.94;36.81;100031.75;5075641;28;20031;-60
2023/06/19 02:55:51;;;;;;;7.13;3.30;;;;;;;18.11;36.49;100031.81;5074976;28;20115;-60
2023/06/19 02:58:16;;;;;;;6.38;3.55;;;;;;;18.37;35.84;100033.50;5076939;28;20025;-64
2023/06/19 03:00:43;;;;;;;8.40;2.90;;;;;;;18.60;35.68;100041.78;5079205;28;20089;-59
2023/06/19 03:03:08;;;;;;;4.68;3.05;;;;;;;19.06;34.46;100033.06;5095672;28;20342;-59
2023/06/19 03:05:34;;;;;;;7.88;3.40;;;;;;;19.38;33.97;100029.56;5095559;28;20115;-57
2023/06/19 03:08:00;;;;;;;5.35;2.85;;;;;;;19.70;33.39;100033.97;5095976;28;20113;-58
2023/06/19 03:10:25;;;;;;;6.03;3.10;;;;;;;19.91;33.22;100024.38;5095970;28;20038;-60
2023/06/19 03:12:50;;;;;;;6.10;2.78;;;;;;;20.19;32.73;100019.22;5095507;28;20051;-58
2023/06/19 03:15:16;;;;;;;5.65;3.28;;;;;;;20.45;32.21;100020.69;5094304;28;20024;-60
2023/06/19 03:17:42;;;;;;;7.75;3.15;;;;;;;20.72;31.83;100029.28;5075344;28;20031;-59
2023/06/19 03:20:11;;;;;;;5.05;3.22;;;;;;;21.02;31.01;100023.91;5075086;28;20032;-59
2023/06/19 03:22:39;;;;;;;9.85;3.10;;;;;;;21.45;30.33;100022.34;5075133;28;20455;-59
2023/06/19 03:25:04;;;;;;;6.32;3.10;;;;;;;21.82;29.68;100023.22;5074874;28;20024;-59
2023/06/19 03:27:30;;;;;;;5.97;2.75;;;;;;;22.22;29.00;100015.47;5075298;28;20414;-58
2023/06/19 03:29:55;;;;;;;10.70;3.15;;;;;;;22.51;28.82;100021.81;5075208;28;20021;-58
2023/06/19 03:32:21;;;;;;;7.07;3.58;;;;;;;22.74;28.55;100004.34;5074743;28;20422;-61
2023/06/19 03:34:46;;;;;;;7.38;3.60;;;;;;;23.08;27.75;100026.41;5076092;28;20044;-60
2023/06/19 03:37:12;;;;;;;4.53;2.80;;;;;;;23.22;26.85;100000.00;5075603;28;20028;-60
2023/06/19 03:39:37;;;;;;;10.65;3.30;;;;;;;23.55;27.06;100034.81;5074663;28;20040;-60
2023/06/19 03:42:03;;;;;;;10.23;3.00;;;;;;;24.03;25.85;100031.22;5075428;28;20060;-60
2023/06/19 03:44:29;;;;;;;5.43;2.70;;;;;;;24.59;25.34;100020.06;5074067;28;20024;-60
2023/06/19 03:46:54;;;;;;;5.47;2.60;;;;;;;25.11;24.16;100022.97;5074162;28;20063;-61
2023/06/19 03:49:20;;;;;;;6.15;2.63;;;;;;;25.63;23.13;99991.97;5074006;28;20447;-62
2023/06/19 03:51:45;;;;;;;5.32;3.08;;;;;;;26.47;22.87;100016.53;5074161;28;20393;-60
2023/06/19 03:54:11;;;;;;;8.43;3.15;;;;;;;26.57;22.60;99998.72;5074280;28;20464;-60
2023/06/19 03:56:38;;;;;;;7.53;3.00;;;;;;;26.86;22.71;100032.88;5077235;28;20025;-60
2023/06/19 03:59:03;;;;;;;4.07;2.85;;;;;;;27.03;21.88;100022.16;5071254;28;20021;-61
2023/06/19 04:01:29;;;;;;;5.82;2.92;;;;;;;27.43;21.64;100020.84;5072705;28;20485;-60
2023/06/19 04:03:54;;;;;;;9.57;3.17;;;;;;;27.71;20.72;100029.59;5072785;28;20371;-61
2023/06/19 04:06:20;;;;;;;7.35;3.00;;;;;;;27.61;20.85;100031.00;5073945;28;20291;-64
2023/06/19 04:08:45;;;;;;;5.53;2.75;;;;;;;27.60;21.72;100017.47;5076832;28;20043;-60
2023/06/19 04:11:10;;;;;;;6.78;3.00;;;;;;;28.00;20.67;100035.34;5073802;28;20059;-60
2023/06/19 04:13:36;;;;;;;3.40;2.88;;;;;;;28.39;19.93;100029.47;5073627;28;20398;-61
2023/06/19 04:16:02;;;;;;;7.15;4.07;;;;;;;28.85;19.21;100032.50;5073802;28;20028;-61
2023/06/19 04:18:28;;;;;;;7.50;3.60;;;;;;;29.41;18.67;100026.56;5073936;28;20040;-60
2023/06/19 04:20:54;;;;;;;6.05;3.60;;;;;;;30.12;17.67;100023.50;5073585;28;20431;-62
2023/06/19 04:23:19;;;;;;;6.40;3.80;;;;;;;31.18;17.20;100018.22;5073406;28;20032;-61
2023/06/19 04:25:44;;;;;;;6.18;3.65;;;;;;;32.04;16.31;100017.84;5073782;28;20051;-61
2023/06/19 04:28:10;;;;;;;7.22;3.58;;;;;;;32.98;15.70;100027.75;5075021;28;20039;-61
2023/06/19 04:30:39;;;;;;;7.60;4.38;;;;;;;33.79;14.70;100022.78;5074228;28;20488;-63
2023/06/19 04:33:05;;;;;;;6.28;4.75;;;;;;;34.55;13.83;100033.44;5071901;28;20182;-62
2023/06/19 04:35:31;;;;;;;8.27;4.55;;;;;;;34.87;13.55;100032.25;5072454;28;20039;-63
2023/06/19 04:38:00;;;;;;;7.18;4.95;;;;;;;35.31;13.24;100016.81;5073332;28;20386;-62
2023/06/19 04:40:27;;;;;;;6.72;4.43;;;;;;;35.68;12.44;100023.91;5073231;28;20040;-63
2023/06/19 04:42:53;;;;;;;5.28;4.28;;;;;;;35.84;12.56;100001.53;5071998;28;20033;-64
2023/06/19 04:45:19;;;;;;;7.72;3.90;;;;;;;36.35;12.63;100023.44;5072680;28;20033;-64
2023/06/19 04:47:45;;;;;;;6.38;2.40;;;;;;;36.25;11.79;100033.84;5072980;28;20032;-64
2023/06/19 04:50:11;;;;;;;3.15;2.38;;;;;;;36.14;11.60;100017.19;5071832;28;20032;-63
2023/06/19 04:52:37;;;;;;;4.20;2.45;;;;;;;36.49;11.64;100028.31;5073097;28;20343;-63
2023/06/19 04:55:05;;;;;;;5.78;2.60;;;;;;;37.40;11.39;100032.38;5073391;28;20020;-63
2023/06/19 04:57:31;;;;;;;5.18;2.53;;;;;;;37.99;10.99;100028.53;5055324;28;20097;-63
2023/06/19 04:59:56;;;;;;;4.30;2.80;;;;;;;38.56;10.98;100034.03;5073975;28;20024;-63
2023/06/19 05:02:23;;;;;;;5.20;2.50;;;;;;;38.91;10.26;100036.47;5092190;28;20036;-67
2023/06/19 05:04:49;;;;;;;6.97;2.80;;;;;;;38.84;10.36;100036.03;5093358;28;20107;-63
2023/06/19 05:07:17;;;;;;;4.38;2.50;;;;;;;38.94;10.44;100035.84;5092249;28;20122;-65
2023/06/19 05:09:43;;;;;;;9.68;3.03;;;;;;;39.12;10.52;100036.88;5092976;28;20407;-63
2023/06/19 05:12:10;;;;;;;8.43;2.60;;;;;;;39.56;10.12;100043.00;5091359;28;20130;-65
2023/06/19 05:14:35;;;;;;;9.15;2.58;;;;;;;39.84;9.59;100031.72;5084204;28;20028;-67
2023/06/19 05:17:01;;;;;;;4.25;2.67;;;;;;;40.48;9.38;100024.28;5072994;28;20481;-65
2023/06/19 05:19:27;;;;;;;7.28;2.75;;;;;;;40.17;8.96;100031.47;5073481;28;20812;-67
2023/06/19 05:21:52;;;;;;;4.43;2.33;;;;;;;40.27;9.29;100035.19;5050912;28;20048;-67
2023/06/19 05:24:18;;;;;;;6.53;2.53;;;;;;;40.52;8.95;100035.69;5072036;28;20036;-68
2023/06/19 05:26:43;;;;;;;4.22;2.42;;;;;;;40.82;8.69;99999.53;5069796;28;20119;-66
2023/06/19 05:29:09;;;;;;;6.00;2.65;;;;;;;41.36;8.39;100026.63;5071230;28;20028;-67
2023/06/19 05:31:35;;;;;;;3.75;2.20;;;;;;;42.13;7.90;100029.03;5050845;28;20111;-65
2023/06/19 05:34:00;;;;;;;4.38;2.20;;;;;;;42.79;7.59;100027.03;5062250;28;20059;-65
2023/06/19 05:36:26;;;;;;;4.63;2.13;;;;;;;43.12;7.22;100023.59;5071839;28;20056;-67
2023/06/19 05:38:51;;;;;;;5.80;2.20;;;;;;;42.87;6.90;100017.75;5071315;28;20028;-65
2023/06/19 05:41:17;;;;;;;5.38;2.63;;;;;;;42.45;7.19;100022.03;5071906;28;20338;-64
2023/06/19 05:43:43;;;;;;;3.35;2.28;;;;;;;42.60;6.72;100012.22;5054047;28;20131;-64
2023/06/19 05:46:08;;;;;;;2.92;1.70;;;;;;;42.73;6.60;100017.97;5072220;28;20021;-63
2023/06/19 05:48:34;;;;;;;6.28;2.28;;;;;;;42.75;6.66;100030.53;5071305;28;20524;-63
2023/06/19 05:50:59;;;;;;;2.67;2.30;;;;;;;42.63;6.98;100019.16;5072297;28;20027;-63
2023/06/19 05:53:25;;;;;;;13.45;2.63;;;;;;;43.41;6.63;100017.13;5071695;28;20020;-69
2023/06/19 05:55:50;;;;;;;8.25;2.55;;;;;;;43.60;6.47;100015.84;5072674;28;20405;-62
2023/06/19 05:58:19;;;;;;;5.45;1.90;;;;;;;43.42;6.22;100017.97;5072194;28;20370;-63
2023/06/19 06:00:46;;;;;;;5.20;2.17;;;;;;;43.44;6.83;100024.09;5081349;28;20199;-63
2023/06/19 06:03:13;;;;;;;5.22;2.17;;;;;;;44.15;6.09;100015.91;5086585;28;20339;-65
2023/06/19 06:05:39;;;;;;;5.45;1.95;;;;;;;44.33;6.42;100019.34;5072492;28;20157;-64
2023/06/19 06:08:04;;;;;;;8.85;2.05;;;;;;;44.32;6.07;100006.41;5074361;28;20462;-63
2023/06/19 06:10:30;;;;;;;3.38;2.00;;;;;;;44.99;6.25;100013.97;5087705;28;20058;-62
2023/06/19 06:12:55;;;;;;;3.13;1.80;;;;;;;45.35;5.56;100017.94;5094070;28;20429;-68
2023/06/19 06:15:21;;;;;;;3.15;2.05;;;;;;;45.54;5.53;100014.47;5097082;28;20032;-63
2023/06/19 06:17:47;;;;;;;2.20;2.00;;;;;;;45.58;5.67;100009.75;5090225;28;20082;-64
2023/06/19 06:20:12;;;;;;;7.18;2.58;;;;;;;45.94;5.24;100010.00;5092723;28;20037;-64
2023/06/19 06:22:41;;;;;;;5.45;2.15;;;;;;;45.74;5.32;100009.00;5093537;28;20032;-63
2023/06/19 06:25:07;;;;;;;4.07;2.00;;;;;;;45.72;5.18;100009.38;5085594;28;20036;-64
2023/06/19 06:27:34;;;;;;;7.53;2.05;;;;;;;45.64;5.34;99998.19;5075352;28;20504;-64
2023/06/19 06:29:59;;;;;;;8.52;2.10;;;;;;;45.82;5.44;100013.72;5075581;28;20020;-64
2023/06/19 06:32:26;;;;;;;8.57;2.30;;;;;;;46.07;5.29;100002.28;5075771;28;20063;-64
2023/06/19 06:34:52;;;;;;;6.43;1.80;;;;;;;46.00;5.26;100002.06;5077663;28;20455;-63
2023/06/19 06:37:22;;;;;;;3.17;1.83;;;;;;;45.57;5.17;100010.09;5086579;28;20032;-64
2023/06/19 06:39:51;;;;;;;5.30;1.90;;;;;;;46.33;4.74;100005.78;5080909;28;20511;-63
2023/06/19 06:42:17;;;;;;;6.90;2.00;;;;;;;47.14;5.00;100007.44;5075953;28;20078;-63
2023/06/19 06:44:42;;;;;;;4.90;2.50;;;;;;;47.64;4.57;100001.25;5080049;28;20035;-62
2023/06/19 06:47:08;;;;;;;3.83;2.22;;;;;;;47.56;4.11;99994.59;5081313;28;20029;-63
2023/06/19 06:49:33;;;;;;;3.00;2.10;;;;;;;47.60;4.40;100008.88;5075816;28;20104;-63
2023/06/19 06:52:00;;;;;;;2.38;2.13;;;;;;;47.62;4.27;100006.47;5070028;28;20020;-64
2023/06/19 06:54:26;;;;;;;3.40;1.90;;;;;;;46.64;4.71;99995.69;5077824;28;20060;-65
2023/06/19 06:56:55;;;;;;;4.25;2.15;;;;;;;46.57;4.75;100002.81;5087767;28;20189;-64
2023/06/19 06:59:21;;;;;;;3.63;2.00;;;;;;;47.08;4.94;99997.59;5076600;28;20047;-66
2023/06/19 07:01:47;;;;;;;5.35;2.00;;;;;;;47.28;4.81;99996.47;5068866;28;20036;-66
2023/06/19 07:04:12;;;;;;;5.72;2.00;;;;;;;47.50;4.67;99996.91;5076098;28;20027;-64
2023/06/19 07:06:38;;;;;;;4.68;2.33;;;;;;;48.81;4.33;99990.91;5082552;28;20036;-65
2023/06/19 07:09:03;;;;;;;8.85;2.55;;;;;;;49.38;3.99;99990.13;5075247;28;20029;-65
2023/06/19 07:11:29;;;;;;;6.70;2.53;;;;;;;49.46;3.34;99979.66;5075049;28;20458;-78
2023/06/19 07:13:54;;;;;;;8.85;2.40;;;;;;;49.54;3.34;99975.72;5073681;28;20419;-64
2023/06/19 07:16:20;;;;;;;2.70;2.33;;;;;;;49.19;3.63;99972.00;5073199;28;20130;-64
2023/06/19 07:18:45;;;;;;;4.22;2.60;;;;;;;49.33;3.78;99979.91;5074681;28;20064;-65
2023/06/19 07:21:12;;;;;;;7.28;3.15;;;;;;;49.15;3.97;99956.13;5074454;28;20032;-64
2023/06/19 07:23:40;;;;;;;10.30;2.65;;;;;;;49.30;3.52;99977.03;5073088;28;20040;-67
2023/06/19 07:26:05;;;;;;;8.13;2.50;;;;;;;49.40;3.58;99974.31;5075508;28;20036;-65
2023/06/19 07:28:31;;;;;;;5.15;2.40;;;;;;;50.12;3.48;99968.66;5073236;28;20033;-67
2023/06/19 07:30:57;;;;;;;7.70;2.50;;;;;;;50.24;3.04;99966.75;5077131;28;20039;-66
2023/06/19 07:33:22;;;;;;;3.58;2.55;;;;;;;50.13;3.21;99966.63;5075551;28;20044;-65
2023/06/19 07:35:48;;;;;;;5.18;2.58;;;;;;;49.82;3.58;99949.63;5074105;28;20367;-68
2023/06/19 07:38:13;;;;;;;3.63;2.58;;;;;;;50.13;3.44;99946.72;5074318;28;20093;-64
2023/06/19 07:40:39;;;;;;;9.43;3.15;;;;;;;50.43;2.93;99957.16;5074267;28;20040;-68
2023/06/19 07:43:05;;;;;;;7.28;3.08;;;;;;;50.79;3.23;99956.63;5073972;28;20063;-64
2023/06/19 07:45:30;;;;;;;5.18;2.72;;;;;;;51.15;3.10;99954.03;5076646;28;20266;-77
2023/06/19 07:47:57;;;;;;;5.40;2.70;;;;;;;51.35;2.42;99954.53;5093279;28;20093;-64
2023/06/19 07:50:23;;;;;;;6.13;2.90;;;;;;;51.67;2.62;99956.69;5093098;28;20055;-65
2023/06/19 07:52:48;;;;;;;3.95;3.00;;;;;;;51.59;2.23;99959.91;5094062;28;20024;-71
2023/06/19 07:55:14;;;;;;;8.18;2.75;;;;;;;52.17;2.26;99954.38;5071372;28;20032;-66
2023/06/19 07:57:39;;;;;;;3.35;3.05;;;;;;;52.93;2.06;99955.16;5085602;28;20469;-71
2023/06/19 08:00:11;;;;;;;4.13;3.28;;;;;;;52.90;1.87;99958.00;5074853;28;20111;-72
2023/06/19 08:02:37;;;;;;;7.65;3.25;;;;;;;52.82;1.92;99949.47;5072428;28;20025;-65
2023/06/19 08:05:03;;;;;;;4.82;3.50;;;;;;;52.75;1.69;99934.38;5072460;28;20016;-66
2023/06/19 08:07:30;;;;;;;8.60;4.03;;;;;;;52.62;2.11;99960.50;5074018;28;20165;-67
2023/06/19 08:09:55;;;;;;;4.80;3.38;;;;;;;51.73;2.28;99959.16;5072696;28;20468;-67
2023/06/19 08:12:21;;;;;;;9.93;2.97;;;;;;;50.55;2.69;99954.00;5073328;28;20573;-65
2023/06/19 08:14:46;;;;;;;7.30;2.83;;;;;;;49.75;3.40;99945.88;5072751;28;20085;-66
2023/06/19 08:17:12;;;;;;;12.45;3.40;;;;;;;48.70;3.57;99956.63;5074370;28;20060;-65
2023/06/19 08:19:38;;;;;;;4.70;2.80;;;;;;;47.00;3.99;99951.28;5071987;28;20482;-63
2023/06/19 08:22:05;;;;;;;4.93;2.55;;;;;;;45.28;4.83;99950.66;5071907;28;20335;-64
2023/06/19 08:24:31;;;;;;;5.90;2.55;;;;;;;43.21;5.53;99953.94;5072154;28;20052;-65
2023/06/19 08:26:56;;;;;;;5.55;2.60;;;;;;;40.51;7.15;99933.03;5072425;28;20418;-65
2023/06/19 08:29:22;;;;;;;3.75;2.55;;;;;;;37.68;9.00;99950.75;5073497;28;20350;-67
2023/06/19 08:31:48;;;;;;;4.53;2.40;;;;;;;34.88;10.39;99933.78;5073121;28;20082;-69
2023/06/19 08:34:14;;;;;;;8.13;2.78;;;;;;;32.89;12.35;99944.22;5093375;28;20036;-71
2023/06/19 08:36:39;;;;;;;9.07;2.25;;;;;;;30.97;13.77;99905.69;5086995;28;20023;-72
2023/06/19 08:39:06;;;;;;;7.07;2.50;;;;;;;29.85;14.36;99941.31;5073207;28;20033;-69
2023/06/19 08:41:31;;;;;;;3.33;2.28;;;;;;;28.84;14.97;99942.66;5072091;28;20025;-70
2023/06/19 08:43:57;;;;;;;5.15;2.33;;;;;;;28.10;15.43;99939.28;5079286;28;20115;-69
2023/06/19 08:46:23;;;;;;;8.90;2.55;;;;;;;27.50;16.50;99952.84;5072283;28;20043;-68
2023/06/19 08:48:49;;;;;;;11.65;2.67;;;;;;;27.01;17.12;99908.06;5055473;28;20047;-70
2023/06/19 08:51:14;;;;;;;7.97;2.55;;;;;;;26.76;17.29;99934.50;5072556;28;20036;-70
2023/06/19 08:53:50;;;;;;;5.70;2.35;;;;;;;26.58;16.78;99942.75;5072363;28;20028;-70
2023/06/19 08:56:15;;;;;;;5.72;2.20;;;;;;;26.01;18.20;99924.44;5072676;28;20048;-68
2023/06/19 08:58:41;;;;;;;11.05;2.88;;;;;;;25.79;18.39;99933.03;5071668;28;20218;-73
2023/06/19 09:01:06;;;;;;;5.47;2.10;;;;;;;25.65;18.14;99932.28;5070182;28;20422;-67
2023/06/19 09:03:32;;;;;;;4.60;2.70;;;;;;;25.60;17.29;99919.25;5072079;28;20641;-64
2023/06/19 09:06:08;;;;;;;6.50;2.60;;;;;;;25.70;17.44;99934.38;5073089;28;20046;-66
2023/06/19 09:08:34;;;;;;;4.85;2.00;;;;;;;25.58;17.28;99923.28;5072595;28;20400;-67
2023/06/19 09:11:04;;;;;;;12.55;2.60;;;;;;;25.41;17.66;99920.19;5073108;28;20064;-64
2023/06/19 09:13:31;;;;;;;9.90;2.50;;;;;;;25.16;17.82;99929.16;5072055;28;20060;-65
2023/06/19 09:16:05;;;;;;;6.03;2.40;;;;;;;25.03;18.21;99925.41;5071259;28;20029;-66
2023/06/19 09:18:46;;;;;;;5.50;2.10;;;;;;;24.87;17.67;99937.69;5073147;28;20040;-66
2023/06/19 09:21:18;;;;;;;6.65;2.13;;;;;;;24.74;17.90;99929.50;5072805;28;20048;-71
2023/06/19 09:23:44;;;;;;;3.92;1.98;;;;;;;24.76;17.93;99911.81;5071488;28;20037;-69
2023/06/19 09:26:14;;;;;;;2.75;2.10;;;;;;;25.06;17.57;99921.41;5072486;28;20044;-66
2023/06/19 09:28:44;;;;;;;8.32;2.05;;;;;;;25.01;17.12;99915.75;5072569;28;20119;-65
2023/06/19 09:31:10;;;;;;;4.30;2.17;;;;;;;25.11;17.18;99921.59;5072084;28;20060;-64
2023/06/19 09:33:36;;;;;;;3.30;2.20;;;;;;;24.98;17.55;99917.03;5072432;28;20137;-74
2023/06/19 09:36:04;;;;;;;4.47;2.13;;;;;;;24.71;16.88;99884.22;5071480;28;20028;-67
2023/06/19 09:38:38;;;;;;;8.35;2.33;;;;;;;24.90;18.28;99925.50;5069073;28;20024;-68
2023/06/19 09:41:05;;;;;;;4.20;2.30;;;;;;;24.95;18.46;99925.66;5072375;28;20167;-69
2023/06/19 09:43:39;;;;;;;4.38;2.17;;;;;;;25.15;17.99;99924.75;5066085;28;20052;-72
2023/06/19 09:46:06;;;;;;;9.90;2.38;;;;;;;25.12;19.02;99920.53;5072042;28;20016;-67
2023/06/19 09:48:34;;;;;;;6.35;2.20;;;;;;;25.05;18.32;99926.03;5071315;28;20036;-63
2023/06/19 09:51:28;;;;;;;4.28;2.05;;;;;;;25.12;17.60;99923.28;5072015;28;20455;-72
2023/06/19 09:53:54;;;;;;;4.28;2.22;;;;;;;24.80;18.25;99914.97;5069885;28;20028;-69
2023/06/19 09:56:24;;;;;;;3.97;2.38;;;;;;;24.84;17.96;99901.69;5071908;28;20111;-71
2023/06/19 09:58:52;;;;;;;4.93;2.50;;;;;;;24.88;18.84;99908.44;5072161;28;20031;-71
2023/06/19 10:01:19;;;;;;;4.35;2.67;;;;;;;24.90;19.13;99904.41;5071494;28;20102;-73
2023/06/19 10:03:44;;;;;;;5.18;2.47;;;;;;;24.86;18.89;99889.47;5091396;28;20473;-71
2023/06/19 10:06:20;;;;;;;2.63;1.92;;;;;;;24.92;18.52;99895.97;5091432;28;20058;-74
2023/06/19 10:08:46;;;;;;;5.60;2.95;;;;;;;24.90;19.09;99903.59;5091379;28;20025;-65
2023/06/19 10:11:12;;;;;;;5.90;2.55;;;;;;;24.87;18.42;99890.31;5092498;28;20078;-74
2023/06/19 10:13:41;;;;;;;5.45;2.45;;;;;;;24.97;18.55;99903.56;5091904;28;20039;-63
2023/06/19 10:16:07;;;;;;;5.32;2.40;;;;;;;24.76;18.60;99898.13;5091250;28;20036;-63
2023/06/19 10:18:46;;;;;;;4.53;2.20;;;;;;;24.77;18.58;99888.88;5072475;28;20059;-74
2023/06/19 10:21:21;;;;;;;3.28;2.55;;;;;;;24.62;18.48;99888.28;5072351;28;20040;-68
2023/06/19 10:23:57;;;;;;;4.22;2.20;;;;;;;24.33;18.43;99887.69;5082747;28;20036;-68
2023/06/19 10:26:34;;;;;;;5.47;2.50;;;;;;;24.16;18.19;99877.22;5091285;28;20043;-72
2023/06/19 10:29:00;;;;;;;8.45;2.30;;;;;;;24.08;18.47;99877.41;5092125;28;20032;-73
2023/06/19 10:31:28;;;;;;;6.03;2.58;;;;;;;23.91;18.27;99834.09;5079685;28;20028;-69
2023/06/19 10:33:54;;;;;;;3.95;2.30;;;;;;;24.17;18.31;99865.22;5091859;28;20028;-73
2023/06/19 10:36:22;;;;;;;4.18;2.40;;;;;;;24.27;18.72;99862.03;5090859;28;20039;-61
2023/06/19 10:38:49;;;;;;;3.40;2.60;;;;;;;24.42;19.97;99870.00;5078906;28;20029;-68
2023/06/19 10:41:18;;;;;;;6.30;2.40;;;;;;;24.45;20.23;99875.06;5070928;28;20032;-63
2023/06/19 10:44:14;;;;;;;4.97;2.42;;;;;;;24.74;19.56;99878.31;5071533;28;20021;-62
2023/06/19 10:46:41;;;;;;;4.47;2.33;;;;;;;24.50;19.61;99844.31;5061348;28;20068;-65
2023/06/19 10:49:10;;;;;;;4.70;2.72;;;;;;;24.68;19.76;99870.97;5071503;28;20371;-73
2023/06/19 10:51:38;;;;;;;5.38;2.35;;;;;;;24.69;19.84;99852.66;5071687;28;20435;-71
2023/06/19 10:54:04;;;;;;;5.38;2.38;;;;;;;24.63;19.86;99860.66;5087514;28;20036;-71
2023/06/19 10:56:30;;;;;;;2.83;2.25;;;;;;;24.53;19.67;99865.78;5090328;28;20039;-72
2023/06/19 10:59:11;;;;;;;4.68;2.60;;;;;;;24.59;19.65;99864.03;5091853;28;20054;-71
2023/06/19 11:01:50;;;;;;;4.65;2.70;;;;;;;24.74;19.71;99861.06;5094252;28;20036;-72
2023/06/19 11:04:16;;;;;;;7.93;2.13;;;;;;;24.48;19.74;99855.47;5075682;28;20285;-73
2023/06/19 11:06:43;;;;;;;4.78;2.50;;;;;;;24.39;19.85;99840.34;5074806;28;20446;-73
2023/06/19 11:09:12;;;;;;;5.43;2.65;;;;;;;24.60;20.52;99850.16;5090518;28;20039;-70
2023/06/19 11:11:59;;;;;;;4.13;2.60;;;;;;;24.90;20.04;99851.56;5087393;28;20086;-73
2023/06/19 11:14:29;;;;;;;6.05;2.38;;;;;;;24.93;20.07;99851.94;5016427;28;20049;-71
2023/06/19 11:16:55;;;;;;;9.68;2.83;;;;;;;24.94;19.86;99842.66;5032660;28;20467;-71
2023/06/19 11:19:23;;;;;;;16.80;2.70;;;;;;;25.02;20.15;99840.75;5032870;28;20053;-72
2023/06/19 11:21:50;;;;;;;9.10;2.92;;;;;;;24.91;20.69;99840.38;5016424;28;20049;-71
2023/06/19 11:24:16;;;;;;;4.32;3.03;;;;;;;24.83;19.82;99837.88;5010191;28;20099;-72
2023/06/19 11:26:50;;;;;;;7.55;2.42;;;;;;;24.73;19.45;99832.00;5034370;28;20057;-71
2023/06/19 11:29:24;;;;;;;4.15;2.42;;;;;;;24.55;19.33;99802.59;5032290;28;20108;-70
2023/06/19 11:31:51;;;;;;;6.85;2.45;;;;;;;24.47;19.15;99825.56;5015512;28;20679;-75